MMGL/GDL METAR and TAF weather

Enter ICAO airport designator
Station Type Date Time Source
MMGL METAR 2021/09/25 10:50 UTC NOAA

MMGL 251050Z 00000KT 8SM SCT100 16/14 A3018 RMK 8/030


Station Type Date Time Source
MMGL Decoded METAR 2021/09/25 10:50 UTC NOAA

Don Miguel / Guadalaj, Mexico (MMGL) 20-31N 103-19W
Sep 25, 2021 - 06:50 AM EDT / 2021.09.25 1050 UTC
Wind: Calm:0
Visibility: 8 mile(s):0
Sky conditions: partly cloudy
Temperature: 60 F (16 C)
Dew Point: 57 F (14 C)
Relative Humidity: 87%
Pressure (altimeter): 30.18 in. Hg (1022 hPa)
ob: MMGL 251050Z 00000KT 8SM SCT100 16/14 A3018 RMK 8/030
cycle: 11

Station Type Date Time Source
MMGL TAF 2021/09/24 12:03 UTC NOAA

TAF TAF MMGL 241102Z 2412/2518 00000KT P6SM BKN090 BKN300 TX27/2421Z TN18/2412Z
FM241800 03010KT P6SM SCT030 BKN100 BKN300
TEMPO 2500/2504 6SM -TSRA BKN020CB
FM251600 08005KT 6SM HZ SCT090 BKN300

Example: see airport list